Bella Vista, Argentina
Current Conditions -  °F | °C
As of 10:00 PM on Saturday 25 Oct 2014 (Local Time) from SARE Reporting Station
Clear Clear  
Wind Chill: 79°   Ceiling: Unl
Heat Index: 81°   Visibility: 6mi
Dew Point: 64°   Wind: 6mph
Humidity: 61%   Direction: 140°SE
Pressure: 29.8"   Gusts: NA
Location:  28.5°S, 59.05°W
Report Text: SARE 260100Z 14005KT CAVOK 26/18 Q1009
Loading
Personal Weather Stations






























Interactive Weather Map
Tropical Storm Tracking
New forecast layout! Learn more

10-Day Weather Forecast

Advertisements
Track Severe Weather on mobile